Information for St. John's International Airport

back to airport list

ICAO Code:CYYT Country:Canada
Airport Name:St. John's International Airport Is Hub:No
Latitude:47.6186 Longitude:-52.7525
Scheduled Departures:0 Scheduled Arrivals:0
Total Past Departures:1 Total Past Arrivals:1
Pilots Based:0 Current Pilot Location:0
CYYT 242000Z 26006KT 250V320 15SM FEW020 SCT080 09/03 A3003 RMK CU1AC3 SLP175


Nearby Destination Airports

ICAO Airport Country GC Distance View
No destination airports within a 500 NM radius!


+ Show Timetable

Scheduled Departures from CYYT

Flight To Destination Days Dep. Time Aircraft Info
No Scheduled Departures!


Scheduled Arrivals to CYYT

Flight From Origin Days Arr. Time Aircraft Info
No Scheduled Arrivals!
+ Show Recent Flight Info

Recent Departures from CYYT

Flight To Destination Pilot Flighttime Landingrate Aircraft View
ASXC54 EINN Shannon Airport Krzysztof H. Blaszkow 04.24.57 -82 ft/m B738 View Report


Recent Arrivals to CYYT

Flight From Origin Pilot Flighttime Landingrate Aircraft View
ASXC53 KORD O'Hare International Airport Krzysztof H. Blaszkow 03.48.28 -277 ft/m B738 View Report
+ Show Pilot Information

Pilots based at CYYT

Avatar Pilot ID Name Location Rank View Profile
No Pilots are based at this airport!


Pilots currently at CYYT

Avatar Pilot ID Name Location Rank On Location since View Profile
Currently there are no pilots at this airport!
- Hide Map